sensor_id;sensor_type;location;lat;lon;timestamp;temperature;humidity
26909;DHT22;14477;51.038;4.588;2023-09-18T00:01:37;22.70;93.90
26909;DHT22;14477;51.038;4.588;2023-09-18T00:04:05;22.70;93.90
26909;DHT22;14477;51.038;4.588;2023-09-18T00:06:34;22.70;94.00
26909;DHT22;14477;51.038;4.588;2023-09-18T00:09:00;22.70;94.00
26909;DHT22;14477;51.038;4.588;2023-09-18T00:11:27;22.70;94.00
26909;DHT22;14477;51.038;4.588;2023-09-18T00:13:52;22.70;94.10
26909;DHT22;14477;51.038;4.588;2023-09-18T00:16:18;22.60;94.00
26909;DHT22;14477;51.038;4.588;2023-09-18T00:18:44;22.60;94.10
26909;DHT22;14477;51.038;4.588;2023-09-18T00:21:11;22.80;94.50
26909;DHT22;14477;51.038;4.588;2023-09-18T00:23:37;22.60;94.20
26909;DHT22;14477;51.038;4.588;2023-09-18T00:26:03;22.70;94.20
26909;DHT22;14477;51.038;4.588;2023-09-18T00:28:29;22.60;94.20
26909;DHT22;14477;51.038;4.588;2023-09-18T00:30:55;22.70;94.30
26909;DHT22;14477;51.038;4.588;2023-09-18T00:33:21;22.70;94.40
26909;DHT22;14477;51.038;4.588;2023-09-18T00:35:51;22.70;94.40
26909;DHT22;14477;51.038;4.588;2023-09-18T00:38:17;22.80;94.50
26909;DHT22;14477;51.038;4.588;2023-09-18T00:40:45;22.70;94.40
26909;DHT22;14477;51.038;4.588;2023-09-18T00:43:11;22.70;94.50
26909;DHT22;14477;51.038;4.588;2023-09-18T00:45:41;22.80;94.50
26909;DHT22;14477;51.038;4.588;2023-09-18T00:48:07;22.70;94.60
26909;DHT22;14477;51.038;4.588;2023-09-18T00:50:33;22.80;94.60
26909;DHT22;14477;51.038;4.588;2023-09-18T00:53:00;22.80;94.60
26909;DHT22;14477;51.038;4.588;2023-09-18T00:55:27;22.80;94.60
26909;DHT22;14477;51.038;4.588;2023-09-18T00:57:55;22.80;94.60
26909;DHT22;14477;51.038;4.588;2023-09-18T01:00:22;22.80;94.60
26909;DHT22;14477;51.038;4.588;2023-09-18T01:02:48;22.80;94.60
26909;DHT22;14477;51.038;4.588;2023-09-18T01:05:15;24.20;95.30
26909;DHT22;14477;51.038;4.588;2023-09-18T01:07:46;22.80;94.60
26909;DHT22;14477;51.038;4.588;2023-09-18T01:10:12;22.80;94.60
26909;DHT22;14477;51.038;4.588;2023-09-18T01:12:55;22.80;94.60
26909;DHT22;14477;51.038;4.588;2023-09-18T01:15:30;22.80;94.70
26909;DHT22;14477;51.038;4.588;2023-09-18T01:17:59;22.80;94.60
26909;DHT22;14477;51.038;4.588;2023-09-18T01:20:24;22.70;94.50
26909;DHT22;14477;51.038;4.588;2023-09-18T01:22:51;22.70;94.50
26909;DHT22;14477;51.038;4.588;2023-09-18T01:25:16;22.70;94.60
26909;DHT22;14477;51.038;4.588;2023-09-18T01:27:42;22.70;94.70
26909;DHT22;14477;51.038;4.588;2023-09-18T01:30:08;22.70;94.70
26909;DHT22;14477;51.038;4.588;2023-09-18T01:32:37;22.70;94.80
26909;DHT22;14477;51.038;4.588;2023-09-18T01:35:05;22.70;94.90
26909;DHT22;14477;51.038;4.588;2023-09-18T01:37:33;22.70;94.90
26909;DHT22;14477;51.038;4.588;2023-09-18T01:40:02;22.70;95.00
26909;DHT22;14477;51.038;4.588;2023-09-18T01:42:32;22.70;95.00
26909;DHT22;14477;51.038;4.588;2023-09-18T01:44:58;22.70;95.10
26909;DHT22;14477;51.038;4.588;2023-09-18T01:47:23;22.70;95.10
26909;DHT22;14477;51.038;4.588;2023-09-18T01:49:49;22.70;95.10
26909;DHT22;14477;51.038;4.588;2023-09-18T01:52:15;22.70;95.00
26909;DHT22;14477;51.038;4.588;2023-09-18T01:54:41;22.60;95.00
26909;DHT22;14477;51.038;4.588;2023-09-18T01:57:07;22.60;95.00
26909;DHT22;14477;51.038;4.588;2023-09-18T01:59:33;22.60;95.40
26909;DHT22;14477;51.038;4.588;2023-09-18T02:01:59;22.60;95.10
26909;DHT22;14477;51.038;4.588;2023-09-18T02:04:25;22.60;95.20
26909;DHT22;14477;51.038;4.588;2023-09-18T02:06:53;22.60;95.30
26909;DHT22;14477;51.038;4.588;2023-09-18T02:09:18;22.50;95.30
26909;DHT22;14477;51.038;4.588;2023-09-18T02:11:46;22.50;95.30
26909;DHT22;14477;51.038;4.588;2023-09-18T02:14:15;22.50;95.40
26909;DHT22;14477;51.038;4.588;2023-09-18T02:16:43;22.50;95.50
26909;DHT22;14477;51.038;4.588;2023-09-18T02:19:10;22.50;95.40
26909;DHT22;14477;51.038;4.588;2023-09-18T02:21:36;22.50;95.50
26909;DHT22;14477;51.038;4.588;2023-09-18T02:24:02;22.50;95.50
26909;DHT22;14477;51.038;4.588;2023-09-18T02:26:29;22.40;95.50
26909;DHT22;14477;51.038;4.588;2023-09-18T02:28:57;22.40;95.60
26909;DHT22;14477;51.038;4.588;2023-09-18T02:31:23;22.40;95.60
26909;DHT22;14477;51.038;4.588;2023-09-18T02:33:49;22.40;95.70
26909;DHT22;14477;51.038;4.588;2023-09-18T02:36:15;22.40;95.70
26909;DHT22;14477;51.038;4.588;2023-09-18T02:38:41;22.40;95.70
26909;DHT22;14477;51.038;4.588;2023-09-18T02:41:07;22.40;95.80
26909;DHT22;14477;51.038;4.588;2023-09-18T02:43:33;22.40;95.80
26909;DHT22;14477;51.038;4.588;2023-09-18T02:45:58;22.30;95.80
26909;DHT22;14477;51.038;4.588;2023-09-18T02:48:24;22.40;95.90
26909;DHT22;14477;51.038;4.588;2023-09-18T02:50:50;22.30;95.80
26909;DHT22;14477;51.038;4.588;2023-09-18T02:53:20;22.30;95.90
26909;DHT22;14477;51.038;4.588;2023-09-18T02:55:48;22.30;96.00
26909;DHT22;14477;51.038;4.588;2023-09-18T02:58:14;22.30;96.40
26909;DHT22;14477;51.038;4.588;2023-09-18T03:00:43;22.30;95.90
26909;DHT22;14477;51.038;4.588;2023-09-18T03:03:10;22.20;96.00
26909;DHT22;14477;51.038;4.588;2023-09-18T03:05:36;22.20;96.00
26909;DHT22;14477;51.038;4.588;2023-09-18T03:08:03;22.20;96.00
26909;DHT22;14477;51.038;4.588;2023-09-18T03:10:35;22.20;96.10
26909;DHT22;14477;51.038;4.588;2023-09-18T03:13:02;22.10;96.20
26909;DHT22;14477;51.038;4.588;2023-09-18T03:15:28;22.10;96.20
26909;DHT22;14477;51.038;4.588;2023-09-18T03:17:54;22.10;96.20
26909;DHT22;14477;51.038;4.588;2023-09-18T03:20:27;22.10;96.30
26909;DHT22;14477;51.038;4.588;2023-09-18T03:22:55;22.10;96.40
26909;DHT22;14477;51.038;4.588;2023-09-18T03:25:22;22.10;96.40
26909;DHT22;14477;51.038;4.588;2023-09-18T03:27:51;22.10;96.40
26909;DHT22;14477;51.038;4.588;2023-09-18T03:30:18;22.10;96.40
26909;DHT22;14477;51.038;4.588;2023-09-18T03:32:44;22.10;96.40
26909;DHT22;14477;51.038;4.588;2023-09-18T03:35:10;22.00;96.40
26909;DHT22;14477;51.038;4.588;2023-09-18T03:37:43;22.00;96.40
26909;DHT22;14477;51.038;4.588;2023-09-18T03:40:10;22.10;96.50
26909;DHT22;14477;51.038;4.588;2023-09-18T03:42:35;22.10;97.10
26909;DHT22;14477;51.038;4.588;2023-09-18T03:45:01;22.00;96.50
26909;DHT22;14477;51.038;4.588;2023-09-18T03:47:28;22.00;96.60
26909;DHT22;14477;51.038;4.588;2023-09-18T03:49:54;22.00;96.50
26909;DHT22;14477;51.038;4.588;2023-09-18T03:52:20;22.00;96.50
26909;DHT22;14477;51.038;4.588;2023-09-18T03:54:46;22.00;96.50
26909;DHT22;14477;51.038;4.588;2023-09-18T03:57:11;22.00;96.60
26909;DHT22;14477;51.038;4.588;2023-09-18T03:59:37;22.00;96.60
26909;DHT22;14477;51.038;4.588;2023-09-18T04:02:03;21.90;96.60
26909;DHT22;14477;51.038;4.588;2023-09-18T04:04:29;22.00;96.70
26909;DHT22;14477;51.038;4.588;2023-09-18T04:06:55;21.90;96.60
26909;DHT22;14477;51.038;4.588;2023-09-18T04:09:21;22.00;96.60
26909;DHT22;14477;51.038;4.588;2023-09-18T04:11:47;21.90;96.60
26909;DHT22;14477;51.038;4.588;2023-09-18T04:14:12;21.90;96.60
26909;DHT22;14477;51.038;4.588;2023-09-18T04:16:38;21.90;96.60
26909;DHT22;14477;51.038;4.588;2023-09-18T04:19:07;21.90;96.50
26909;DHT22;14477;51.038;4.588;2023-09-18T04:21:33;21.80;96.50
26909;DHT22;14477;51.038;4.588;2023-09-18T04:23:59;21.90;96.50
26909;DHT22;14477;51.038;4.588;2023-09-18T04:26:26;21.80;96.50
26909;DHT22;14477;51.038;4.588;2023-09-18T04:28:59;21.80;96.50
26909;DHT22;14477;51.038;4.588;2023-09-18T04:31:26;21.80;96.50
26909;DHT22;14477;51.038;4.588;2023-09-18T04:33:52;21.80;96.50
26909;DHT22;14477;51.038;4.588;2023-09-18T04:36:19;21.80;96.50
26909;DHT22;14477;51.038;4.588;2023-09-18T04:38:45;21.80;96.60
26909;DHT22;14477;51.038;4.588;2023-09-18T04:41:10;21.70;96.50
26909;DHT22;14477;51.038;4.588;2023-09-18T04:43:37;21.70;96.50
26909;DHT22;14477;51.038;4.588;2023-09-18T04:46:06;21.70;96.50
26909;DHT22;14477;51.038;4.588;2023-09-18T04:48:32;21.70;96.50
26909;DHT22;14477;51.038;4.588;2023-09-18T04:50:59;21.70;96.50
26909;DHT22;14477;51.038;4.588;2023-09-18T04:53:27;21.70;96.50
26909;DHT22;14477;51.038;4.588;2023-09-18T04:55:52;20.90;96.90
26909;DHT22;14477;51.038;4.588;2023-09-18T04:58:18;21.60;96.40
26909;DHT22;14477;51.038;4.588;2023-09-18T05:00:44;21.60;96.40
26909;DHT22;14477;51.038;4.588;2023-09-18T05:03:12;21.60;96.40
26909;DHT22;14477;51.038;4.588;2023-09-18T05:05:38;21.50;96.40
26909;DHT22;14477;51.038;4.588;2023-09-18T05:08:06;21.50;96.40
26909;DHT22;14477;51.038;4.588;2023-09-18T05:10:35;21.50;96.40
26909;DHT22;14477;51.038;4.588;2023-09-18T05:13:00;21.50;96.50
26909;DHT22;14477;51.038;4.588;2023-09-18T05:15:26;21.50;96.50
26909;DHT22;14477;51.038;4.588;2023-09-18T05:17:55;21.40;96.50
26909;DHT22;14477;51.038;4.588;2023-09-18T05:20:23;21.40;96.50
26909;DHT22;14477;51.038;4.588;2023-09-18T05:22:50;21.40;96.50
26909;DHT22;14477;51.038;4.588;2023-09-18T05:25:18;21.40;96.60
26909;DHT22;14477;51.038;4.588;2023-09-18T05:27:44;21.40;96.60
26909;DHT22;14477;51.038;4.588;2023-09-18T05:30:12;21.30;96.70
26909;DHT22;14477;51.038;4.588;2023-09-18T05:32:39;21.30;96.70
26909;DHT22;14477;51.038;4.588;2023-09-18T05:35:05;21.30;96.70
26909;DHT22;14477;51.038;4.588;2023-09-18T05:37:32;21.70;96.80
26909;DHT22;14477;51.038;4.588;2023-09-18T05:39:58;20.50;97.10
26909;DHT22;14477;51.038;4.588;2023-09-18T05:42:24;21.20;96.60
26909;DHT22;14477;51.038;4.588;2023-09-18T05:44:50;21.30;96.70
26909;DHT22;14477;51.038;4.588;2023-09-18T05:47:16;21.30;96.70
26909;DHT22;14477;51.038;4.588;2023-09-18T05:49:41;20.30;97.10
26909;DHT22;14477;51.038;4.588;2023-09-18T05:52:07;21.30;96.70
26909;DHT22;14477;51.038;4.588;2023-09-18T05:54:33;21.70;97.40
26909;DHT22;14477;51.038;4.588;2023-09-18T05:56:59;21.50;97.30
26909;DHT22;14477;51.038;4.588;2023-09-18T05:59:27;21.20;96.70
26909;DHT22;14477;51.038;4.588;2023-09-18T06:01:53;21.20;96.70
26909;DHT22;14477;51.038;4.588;2023-09-18T06:04:19;21.20;96.70
26909;DHT22;14477;51.038;4.588;2023-09-18T06:06:45;21.20;96.70
26909;DHT22;14477;51.038;4.588;2023-09-18T06:09:11;21.20;96.70
26909;DHT22;14477;51.038;4.588;2023-09-18T06:11:38;21.20;96.70
26909;DHT22;14477;51.038;4.588;2023-09-18T06:14:03;21.20;96.70
26909;DHT22;14477;51.038;4.588;2023-09-18T06:16:30;21.20;96.70
26909;DHT22;14477;51.038;4.588;2023-09-18T06:18:56;21.20;96.80
26909;DHT22;14477;51.038;4.588;2023-09-18T06:21:22;21.10;96.80
26909;DHT22;14477;51.038;4.588;2023-09-18T06:23:48;21.10;96.80
26909;DHT22;14477;51.038;4.588;2023-09-18T06:26:13;21.10;96.80
26909;DHT22;14477;51.038;4.588;2023-09-18T06:28:40;21.10;96.90
26909;DHT22;14477;51.038;4.588;2023-09-18T06:31:05;21.20;96.90
26909;DHT22;14477;51.038;4.588;2023-09-18T06:33:31;21.20;97.00
26909;DHT22;14477;51.038;4.588;2023-09-18T06:35:57;21.20;97.00
26909;DHT22;14477;51.038;4.588;2023-09-18T06:38:23;21.70;98.00
26909;DHT22;14477;51.038;4.588;2023-09-18T06:40:49;21.20;97.00
26909;DHT22;14477;51.038;4.588;2023-09-18T06:43:15;21.20;97.00
26909;DHT22;14477;51.038;4.588;2023-09-18T06:45:41;21.20;97.00
26909;DHT22;14477;51.038;4.588;2023-09-18T06:48:07;21.30;97.00
26909;DHT22;14477;51.038;4.588;2023-09-18T06:50:32;21.30;97.00
26909;DHT22;14477;51.038;4.588;2023-09-18T06:52:58;21.30;97.00
26909;DHT22;14477;51.038;4.588;2023-09-18T06:55:24;21.40;97.70
26909;DHT22;14477;51.038;4.588;2023-09-18T06:57:50;21.20;97.10
26909;DHT22;14477;51.038;4.588;2023-09-18T07:00:17;21.20;97.10
26909;DHT22;14477;51.038;4.588;2023-09-18T07:02:46;21.30;97.10
26909;DHT22;14477;51.038;4.588;2023-09-18T07:05:12;21.30;97.10
26909;DHT22;14477;51.038;4.588;2023-09-18T07:07:37;21.60;97.80
26909;DHT22;14477;51.038;4.588;2023-09-18T07:10:04;21.30;97.20
26909;DHT22;14477;51.038;4.588;2023-09-18T07:12:29;21.30;97.20
26909;DHT22;14477;51.038;4.588;2023-09-18T07:14:58;21.40;97.20
26909;DHT22;14477;51.038;4.588;2023-09-18T07:17:24;21.40;97.20
26909;DHT22;14477;51.038;4.588;2023-09-18T07:19:49;21.40;97.20
26909;DHT22;14477;51.038;4.588;2023-09-18T07:22:15;21.40;97.20
26909;DHT22;14477;51.038;4.588;2023-09-18T07:24:41;21.50;97.20
26909;DHT22;14477;51.038;4.588;2023-09-18T07:27:08;21.50;97.10
26909;DHT22;14477;51.038;4.588;2023-09-18T07:29:33;21.50;97.10
26909;DHT22;14477;51.038;4.588;2023-09-18T07:32:00;21.50;97.00
26909;DHT22;14477;51.038;4.588;2023-09-18T07:34:27;21.50;97.30
26909;DHT22;14477;51.038;4.588;2023-09-18T07:36:52;21.50;97.30
26909;DHT22;14477;51.038;4.588;2023-09-18T07:39:21;21.60;97.30
26909;DHT22;14477;51.038;4.588;2023-09-18T07:41:46;21.60;97.30
26909;DHT22;14477;51.038;4.588;2023-09-18T07:44:19;21.60;97.20
26909;DHT22;14477;51.038;4.588;2023-09-18T07:46:45;21.70;97.20
26909;DHT22;14477;51.038;4.588;2023-09-18T07:49:10;21.70;97.80
26909;DHT22;14477;51.038;4.588;2023-09-18T07:51:36;21.80;98.40
26909;DHT22;14477;51.038;4.588;2023-09-18T07:54:02;22.00;98.90
26909;DHT22;14477;51.038;4.588;2023-09-18T07:56:28;22.20;99.90
26909;DHT22;14477;51.038;4.588;2023-09-18T07:58:58;22.60;99.90
26909;DHT22;14477;51.038;4.588;2023-09-18T08:01:24;23.10;99.90
26909;DHT22;14477;51.038;4.588;2023-09-18T08:03:50;23.60;99.90
26909;DHT22;14477;51.038;4.588;2023-09-18T08:06:16;24.10;99.90
26909;DHT22;14477;51.038;4.588;2023-09-18T08:08:45;24.60;99.90
26909;DHT22;14477;51.038;4.588;2023-09-18T08:11:10;25.00;99.90
26909;DHT22;14477;51.038;4.588;2023-09-18T08:13:36;25.40;99.90
26909;DHT22;14477;51.038;4.588;2023-09-18T08:16:05;25.80;99.90
26909;DHT22;14477;51.038;4.588;2023-09-18T08:18:31;26.20;99.90
26909;DHT22;14477;51.038;4.588;2023-09-18T08:20:57;26.60;99.90
26909;DHT22;14477;51.038;4.588;2023-09-18T08:23:26;26.90;99.90
26909;DHT22;14477;51.038;4.588;2023-09-18T08:25:53;27.20;99.50
26909;DHT22;14477;51.038;4.588;2023-09-18T08:28:22;27.50;99.40
26909;DHT22;14477;51.038;4.588;2023-09-18T08:30:48;27.70;97.40
26909;DHT22;14477;51.038;4.588;2023-09-18T08:33:14;27.80;96.70
26909;DHT22;14477;51.038;4.588;2023-09-18T08:35:40;27.80;95.60
26909;DHT22;14477;51.038;4.588;2023-09-18T08:38:06;27.70;94.80
26909;DHT22;14477;51.038;4.588;2023-09-18T08:40:33;27.60;94.90
26909;DHT22;14477;51.038;4.588;2023-09-18T08:42:59;27.50;94.60
26909;DHT22;14477;51.038;4.588;2023-09-18T08:45:53;27.30;94.40
26909;DHT22;14477;51.038;4.588;2023-09-18T08:48:21;27.10;91.70
26909;DHT22;14477;51.038;4.588;2023-09-18T08:50:48;26.90;93.20
26909;DHT22;14477;51.038;4.588;2023-09-18T08:53:14;26.70;92.80
26909;DHT22;14477;51.038;4.588;2023-09-18T08:55:40;26.40;92.80
26909;DHT22;14477;51.038;4.588;2023-09-18T08:58:07;26.10;92.80
26909;DHT22;14477;51.038;4.588;2023-09-18T09:00:38;25.90;92.70
26909;DHT22;14477;51.038;4.588;2023-09-18T09:03:04;25.60;92.30
26909;DHT22;14477;51.038;4.588;2023-09-18T09:05:30;27.60;93.20
26909;DHT22;14477;51.038;4.588;2023-09-18T09:07:57;25.20;92.90
26909;DHT22;14477;51.038;4.588;2023-09-18T09:10:22;25.10;93.10
26909;DHT22;14477;51.038;4.588;2023-09-18T09:12:53;25.00;93.20
26909;DHT22;14477;51.038;4.588;2023-09-18T09:15:25;24.90;93.50
26909;DHT22;14477;51.038;4.588;2023-09-18T09:18:01;24.80;93.30
26909;DHT22;14477;51.038;4.588;2023-09-18T09:20:28;24.80;94.00
26909;DHT22;14477;51.038;4.588;2023-09-18T09:23:09;24.70;93.60
26909;DHT22;14477;51.038;4.588;2023-09-18T09:25:35;24.70;93.10
26909;DHT22;14477;51.038;4.588;2023-09-18T09:28:06;24.70;93.50
26909;DHT22;14477;51.038;4.588;2023-09-18T09:30:34;24.60;93.00
26909;DHT22;14477;51.038;4.588;2023-09-18T09:33:02;24.50;93.20
26909;DHT22;14477;51.038;4.588;2023-09-18T09:35:30;24.50;92.80
26909;DHT22;14477;51.038;4.588;2023-09-18T09:37:59;24.30;93.00
26909;DHT22;14477;51.038;4.588;2023-09-18T09:40:27;24.30;93.20
26909;DHT22;14477;51.038;4.588;2023-09-18T09:42:54;24.30;93.30
26909;DHT22;14477;51.038;4.588;2023-09-18T09:45:27;24.20;93.20
26909;DHT22;14477;51.038;4.588;2023-09-18T09:47:54;24.20;93.30
26909;DHT22;14477;51.038;4.588;2023-09-18T09:50:21;24.10;93.30
26909;DHT22;14477;51.038;4.588;2023-09-18T09:52:49;24.10;93.30
26909;DHT22;14477;51.038;4.588;2023-09-18T09:55:32;24.10;93.10
26909;DHT22;14477;51.038;4.588;2023-09-18T09:58:01;24.00;92.60
26909;DHT22;14477;51.038;4.588;2023-09-18T10:00:32;24.00;93.20
26909;DHT22;14477;51.038;4.588;2023-09-18T10:03:04;24.00;92.90
26909;DHT22;14477;51.038;4.588;2023-09-18T10:05:36;24.00;93.10
26909;DHT22;14477;51.038;4.588;2023-09-18T10:08:21;23.90;92.80
26909;DHT22;14477;51.038;4.588;2023-09-18T10:10:51;23.90;92.80
26909;DHT22;14477;51.038;4.588;2023-09-18T10:13:27;23.90;93.20
26909;DHT22;14477;51.038;4.588;2023-09-18T10:15:53;23.80;93.10
26909;DHT22;14477;51.038;4.588;2023-09-18T10:20:51;23.90;93.50
26909;DHT22;14477;51.038;4.588;2023-09-18T10:23:38;23.80;93.30
26909;DHT22;14477;51.038;4.588;2023-09-18T10:26:10;24.90;94.00
26909;DHT22;14477;51.038;4.588;2023-09-18T10:28:37;23.80;93.60
26909;DHT22;14477;51.038;4.588;2023-09-18T10:31:03;23.80;93.70
26909;DHT22;14477;51.038;4.588;2023-09-18T10:33:30;23.90;94.00
26909;DHT22;14477;51.038;4.588;2023-09-18T10:35:56;24.00;93.80
26909;DHT22;14477;51.038;4.588;2023-09-18T10:38:25;24.00;93.90
26909;DHT22;14477;51.038;4.588;2023-09-18T10:40:54;24.00;94.00
26909;DHT22;14477;51.038;4.588;2023-09-18T10:43:21;24.10;94.10
26909;DHT22;14477;51.038;4.588;2023-09-18T10:45:47;24.20;94.10
26909;DHT22;14477;51.038;4.588;2023-09-18T10:48:16;24.30;93.80
26909;DHT22;14477;51.038;4.588;2023-09-18T10:50:43;24.30;93.70
26909;DHT22;14477;51.038;4.588;2023-09-18T10:53:12;24.40;93.60
26909;DHT22;14477;51.038;4.588;2023-09-18T10:55:38;24.40;93.10
26909;DHT22;14477;51.038;4.588;2023-09-18T10:58:04;24.40;93.30
26909;DHT22;14477;51.038;4.588;2023-09-18T11:00:32;24.40;93.40
26909;DHT22;14477;51.038;4.588;2023-09-18T11:03:13;24.40;93.30
26909;DHT22;14477;51.038;4.588;2023-09-18T11:05:40;24.50;92.50
26909;DHT22;14477;51.038;4.588;2023-09-18T11:08:28;24.50;93.50
26909;DHT22;14477;51.038;4.588;2023-09-18T11:11:00;24.50;92.50
26909;DHT22;14477;51.038;4.588;2023-09-18T11:13:40;24.60;93.70
26909;DHT22;14477;51.038;4.588;2023-09-18T11:18:50;25.10;94.60
26909;DHT22;14477;51.038;4.588;2023-09-18T11:21:18;25.50;95.70
26909;DHT22;14477;51.038;4.588;2023-09-18T11:24:00;26.00;97.10
26909;DHT22;14477;51.038;4.588;2023-09-18T11:26:36;26.50;95.30
26909;DHT22;14477;51.038;4.588;2023-09-18T11:29:05;27.00;95.30
26909;DHT22;14477;51.038;4.588;2023-09-18T11:31:54;27.50;96.60
26909;DHT22;14477;51.038;4.588;2023-09-18T11:34:23;28.00;93.60
26909;DHT22;14477;51.038;4.588;2023-09-18T11:36:50;28.40;95.10
26909;DHT22;14477;51.038;4.588;2023-09-18T11:39:41;28.70;94.70
26909;DHT22;14477;51.038;4.588;2023-09-18T11:42:12;29.00;92.70
26909;DHT22;14477;51.038;4.588;2023-09-18T11:44:39;29.20;93.10
26909;DHT22;14477;51.038;4.588;2023-09-18T11:47:19;29.30;91.70
26909;DHT22;14477;51.038;4.588;2023-09-18T11:49:58;29.20;88.10
26909;DHT22;14477;51.038;4.588;2023-09-18T11:52:29;28.90;87.30
26909;DHT22;14477;51.038;4.588;2023-09-18T11:54:59;28.60;87.30
26909;DHT22;14477;51.038;4.588;2023-09-18T11:57:25;28.30;85.30
26909;DHT22;14477;51.038;4.588;2023-09-18T11:59:52;28.00;86.00
26909;DHT22;14477;51.038;4.588;2023-09-18T12:02:31;27.80;88.50
26909;DHT22;14477;51.038;4.588;2023-09-18T12:05:15;27.70;87.20
26909;DHT22;14477;51.038;4.588;2023-09-18T12:07:44;27.70;88.30
26909;DHT22;14477;51.038;4.588;2023-09-18T12:10:15;27.00;89.80
26909;DHT22;14477;51.038;4.588;2023-09-18T12:12:43;28.10;91.30
26909;DHT22;14477;51.038;4.588;2023-09-18T12:15:13;28.40;91.60
26909;DHT22;14477;51.038;4.588;2023-09-18T12:17:40;28.60;91.10
26909;DHT22;14477;51.038;4.588;2023-09-18T12:20:06;29.00;91.70
26909;DHT22;14477;51.038;4.588;2023-09-18T12:22:37;29.30;91.70
26909;DHT22;14477;51.038;4.588;2023-09-18T12:25:14;29.50;90.70
26909;DHT22;14477;51.038;4.588;2023-09-18T12:27:43;29.90;89.30
26909;DHT22;14477;51.038;4.588;2023-09-18T12:30:10;29.00;87.80
26909;DHT22;14477;51.038;4.588;2023-09-18T12:32:37;30.30;90.20
26909;DHT22;14477;51.038;4.588;2023-09-18T12:35:06;30.50;89.90
26909;DHT22;14477;51.038;4.588;2023-09-18T12:37:42;30.70;89.40
26909;DHT22;14477;51.038;4.588;2023-09-18T12:40:21;30.90;85.40
26909;DHT22;14477;51.038;4.588;2023-09-18T12:42:47;31.00;83.30
26909;DHT22;14477;51.038;4.588;2023-09-18T12:45:13;31.10;86.30
26909;DHT22;14477;51.038;4.588;2023-09-18T12:47:39;31.20;85.70
26909;DHT22;14477;51.038;4.588;2023-09-18T12:50:06;31.30;86.30
26909;DHT22;14477;51.038;4.588;2023-09-18T12:52:33;31.40;86.70
26909;DHT22;14477;51.038;4.588;2023-09-18T12:54:59;31.50;86.80
26909;DHT22;14477;51.038;4.588;2023-09-18T12:57:27;31.60;85.10
26909;DHT22;14477;51.038;4.588;2023-09-18T12:59:54;31.70;83.40
26909;DHT22;14477;51.038;4.588;2023-09-18T13:02:20;31.70;82.60
26909;DHT22;14477;51.038;4.588;2023-09-18T13:04:53;31.70;81.80
26909;DHT22;14477;51.038;4.588;2023-09-18T13:07:20;31.60;75.60
26909;DHT22;14477;51.038;4.588;2023-09-18T13:10:00;31.40;78.60
26909;DHT22;14477;51.038;4.588;2023-09-18T13:12:49;31.30;72.60
26909;DHT22;14477;51.038;4.588;2023-09-18T13:15:32;31.30;76.10
26909;DHT22;14477;51.038;4.588;2023-09-18T13:18:00;31.30;75.90
26909;DHT22;14477;51.038;4.588;2023-09-18T13:20:28;31.30;78.60
26909;DHT22;14477;51.038;4.588;2023-09-18T13:22:59;31.30;78.30
26909;DHT22;14477;51.038;4.588;2023-09-18T13:25:39;31.30;76.80
26909;DHT22;14477;51.038;4.588;2023-09-18T13:28:07;31.30;75.70
26909;DHT22;14477;51.038;4.588;2023-09-18T13:30:33;31.40;78.00
26909;DHT22;14477;51.038;4.588;2023-09-18T13:33:06;31.30;78.00
26909;DHT22;14477;51.038;4.588;2023-09-18T13:35:36;31.40;75.70
26909;DHT22;14477;51.038;4.588;2023-09-18T13:38:04;31.40;77.20
26909;DHT22;14477;51.038;4.588;2023-09-18T13:40:32;31.30;74.50
26909;DHT22;14477;51.038;4.588;2023-09-18T13:42:59;31.10;71.60
26909;DHT22;14477;51.038;4.588;2023-09-18T13:45:25;30.90;71.40
26909;DHT22;14477;51.038;4.588;2023-09-18T13:47:50;30.60;71.30
26909;DHT22;14477;51.038;4.588;2023-09-18T13:50:16;30.40;71.00
26909;DHT22;14477;51.038;4.588;2023-09-18T13:52:42;30.10;70.70
26909;DHT22;14477;51.038;4.588;2023-09-18T13:55:08;29.90;70.40
26909;DHT22;14477;51.038;4.588;2023-09-18T13:57:35;29.70;70.90
26909;DHT22;14477;51.038;4.588;2023-09-18T14:00:03;29.50;70.60
26909;DHT22;14477;51.038;4.588;2023-09-18T14:02:36;29.40;69.70
26909;DHT22;14477;51.038;4.588;2023-09-18T14:05:02;29.20;70.50
26909;DHT22;14477;51.038;4.588;2023-09-18T14:07:29;29.10;70.40
26909;DHT22;14477;51.038;4.588;2023-09-18T14:09:55;28.90;69.50
26909;DHT22;14477;51.038;4.588;2023-09-18T14:12:21;28.70;69.70
26909;DHT22;14477;51.038;4.588;2023-09-18T14:14:46;28.60;68.30
26909;DHT22;14477;51.038;4.588;2023-09-18T14:17:13;28.40;68.20
26909;DHT22;14477;51.038;4.588;2023-09-18T14:19:38;28.20;69.10
26909;DHT22;14477;51.038;4.588;2023-09-18T14:22:05;28.00;69.20
26909;DHT22;14477;51.038;4.588;2023-09-18T14:24:32;27.90;69.00
26909;DHT22;14477;51.038;4.588;2023-09-18T14:27:00;27.70;67.80
26909;DHT22;14477;51.038;4.588;2023-09-18T14:29:26;27.60;68.70
26909;DHT22;14477;51.038;4.588;2023-09-18T14:31:52;27.40;69.20
26909;DHT22;14477;51.038;4.588;2023-09-18T14:34:19;27.30;68.60
26909;DHT22;14477;51.038;4.588;2023-09-18T14:36:44;27.20;69.10
26909;DHT22;14477;51.038;4.588;2023-09-18T14:39:11;27.10;69.60
26909;DHT22;14477;51.038;4.588;2023-09-18T14:41:38;27.00;70.10
26909;DHT22;14477;51.038;4.588;2023-09-18T14:44:05;26.90;70.10
26909;DHT22;14477;51.038;4.588;2023-09-18T14:46:31;26.90;70.40
26909;DHT22;14477;51.038;4.588;2023-09-18T14:49:00;26.80;70.50
26909;DHT22;14477;51.038;4.588;2023-09-18T14:51:27;26.80;70.90
26909;DHT22;14477;51.038;4.588;2023-09-18T14:53:59;26.70;71.10
26909;DHT22;14477;51.038;4.588;2023-09-18T14:56:25;26.50;71.20
26909;DHT22;14477;51.038;4.588;2023-09-18T14:58:51;26.10;71.30
26909;DHT22;14477;51.038;4.588;2023-09-18T15:01:21;25.70;71.90
26909;DHT22;14477;51.038;4.588;2023-09-18T15:03:47;25.30;72.70
26909;DHT22;14477;51.038;4.588;2023-09-18T15:06:17;24.70;74.10
26909;DHT22;14477;51.038;4.588;2023-09-18T15:08:43;24.20;76.80
26909;DHT22;14477;51.038;4.588;2023-09-18T15:11:09;23.80;78.80
26909;DHT22;14477;51.038;4.588;2023-09-18T15:13:35;23.50;80.70
26909;DHT22;14477;51.038;4.588;2023-09-18T15:16:02;23.10;82.70
26909;DHT22;14477;51.038;4.588;2023-09-18T15:18:27;22.90;84.60
26909;DHT22;14477;51.038;4.588;2023-09-18T15:20:53;22.70;86.00
26909;DHT22;14477;51.038;4.588;2023-09-18T15:23:23;22.50;87.30
26909;DHT22;14477;51.038;4.588;2023-09-18T15:25:50;22.40;88.80
26909;DHT22;14477;51.038;4.588;2023-09-18T15:28:16;22.30;90.10
26909;DHT22;14477;51.038;4.588;2023-09-18T15:30:45;22.30;90.60
26909;DHT22;14477;51.038;4.588;2023-09-18T15:33:11;22.20;91.10
26909;DHT22;14477;51.038;4.588;2023-09-18T15:35:38;22.20;91.50
26909;DHT22;14477;51.038;4.588;2023-09-18T15:38:04;22.20;91.60
26909;DHT22;14477;51.038;4.588;2023-09-18T15:40:32;22.20;92.00